createdAt,value
2023-11-07T00:00:21.198Z,39.45
2023-11-07T00:02:54.557Z,39.42
2023-11-07T00:05:22.919Z,39.70
2023-11-07T00:07:51.057Z,39.65
2023-11-07T00:10:19.536Z,39.65
2023-11-07T00:12:49.942Z,39.63
2023-11-07T00:15:20.088Z,39.68
2023-11-07T00:17:48.369Z,39.60
2023-11-07T00:20:18.329Z,39.48
2023-11-07T00:22:46.438Z,39.41
2023-11-07T00:25:14.539Z,39.31
2023-11-07T00:27:42.660Z,39.57
2023-11-07T00:30:11.406Z,39.55
2023-11-07T00:32:41.032Z,39.26
2023-11-07T00:35:09.932Z,39.50
2023-11-07T00:37:43.031Z,39.51
2023-11-07T00:40:14.341Z,39.51
2023-11-07T00:42:42.593Z,39.40
2023-11-07T00:45:11.261Z,39.50
2023-11-07T00:47:39.484Z,39.43
2023-11-07T00:50:11.819Z,39.35
2023-11-07T00:52:41.359Z,39.46
2023-11-07T00:55:10.284Z,39.18
2023-11-07T00:57:38.392Z,39.14
2023-11-07T01:00:07.602Z,39.15
2023-11-07T01:02:35.804Z,39.32
2023-11-07T01:05:04.045Z,39.37
2023-11-07T01:07:32.603Z,39.13
2023-11-07T01:10:02.023Z,39.34
2023-11-07T01:12:30.197Z,39.02
2023-11-07T01:14:58.266Z,39.21
2023-11-07T01:17:27.923Z,39.43
2023-11-07T01:19:56.087Z,39.30
2023-11-07T01:22:24.168Z,39.27
2023-11-07T01:24:52.209Z,39.49
2023-11-07T01:27:21.689Z,39.37
2023-11-07T01:29:51.914Z,39.23
2023-11-07T01:32:20.936Z,39.05
2023-11-07T01:34:49.060Z,39.13
2023-11-07T01:37:17.079Z,39.30
2023-11-07T01:39:45.209Z,39.51
2023-11-07T01:42:13.971Z,39.41
2023-11-07T01:44:49.860Z,38.91
2023-11-07T01:47:19.945Z,39.19
2023-11-07T01:49:48.512Z,39.00
2023-11-07T01:52:16.689Z,39.08
2023-11-07T01:54:45.815Z,39.10
2023-11-07T01:57:15.298Z,39.46
2023-11-07T01:59:44.942Z,38.88
2023-11-07T02:02:19.052Z,39.10
2023-11-07T02:04:47.310Z,39.14
2023-11-07T02:07:15.490Z,39.22
2023-11-07T02:09:44.182Z,39.24
2023-11-07T02:12:12.395Z,38.99
2023-11-07T02:14:42.340Z,38.95
2023-11-07T02:17:11.959Z,39.04
2023-11-07T02:19:40.036Z,39.11
2023-11-07T02:22:10.877Z,39.29
2023-11-07T02:24:40.515Z,39.11
2023-11-07T02:27:08.701Z,39.26
2023-11-07T02:29:36.810Z,38.93
2023-11-07T02:32:05.687Z,39.26
2023-11-07T02:34:33.700Z,39.00
2023-11-07T02:37:01.812Z,38.95
2023-11-07T02:39:29.865Z,39.34
2023-11-07T02:41:59.376Z,39.37
2023-11-07T02:44:27.565Z,39.13
2023-11-07T02:46:55.671Z,39.20
2023-11-07T02:49:23.804Z,39.08
2023-11-07T02:51:51.913Z,39.20
2023-11-07T02:54:19.925Z,38.98
2023-11-07T02:56:48.072Z,39.22
2023-11-07T02:59:17.606Z,38.90
2023-11-07T03:01:45.719Z,39.42
2023-11-07T03:04:14.337Z,39.27
2023-11-07T03:06:42.537Z,39.11
2023-11-07T03:09:11.238Z,38.78
2023-11-07T03:11:39.462Z,39.33
2023-11-07T03:14:07.821Z,39.10
2023-11-07T03:16:38.446Z,39.27
2023-11-07T03:19:09.411Z,38.95
2023-11-07T03:21:37.576Z,39.57
2023-11-07T03:24:06.085Z,39.00
2023-11-07T03:26:34.549Z,38.80
2023-11-07T03:29:02.583Z,38.91
2023-11-07T03:31:31.512Z,39.17
2023-11-07T03:34:00.980Z,38.89
2023-11-07T03:36:29.153Z,38.86
2023-11-07T03:38:57.280Z,39.00
2023-11-07T03:41:25.866Z,39.23
2023-11-07T03:43:53.881Z,39.30
2023-11-07T03:46:22.014Z,39.25
2023-11-07T03:48:50.236Z,39.34
2023-11-07T03:51:19.731Z,38.99
2023-11-07T03:53:47.900Z,39.27
2023-11-07T03:56:15.904Z,39.18
2023-11-07T03:58:44.151Z,39.01
2023-11-07T04:01:12.297Z,39.05
2023-11-07T04:03:40.548Z,38.93
2023-11-07T04:06:09.039Z,38.84
2023-11-07T04:08:38.764Z,39.20
2023-11-07T04:11:07.199Z,39.06
2023-11-07T04:13:35.627Z,39.16
2023-11-07T04:16:04.047Z,39.23
2023-11-07T04:18:32.352Z,39.38
2023-11-07T04:21:00.568Z,39.22
2023-11-07T04:23:28.819Z,39.19
2023-11-07T04:25:59.486Z,38.99
2023-11-07T04:28:28.285Z,39.31
2023-11-07T04:30:56.284Z,38.94
2023-11-07T04:33:24.451Z,39.23
2023-11-07T04:35:52.840Z,39.18
2023-11-07T04:38:21.284Z,38.86
2023-11-07T04:40:49.439Z,39.10
2023-11-07T04:43:18.837Z,39.08
2023-11-07T04:45:46.831Z,38.99
2023-11-07T04:48:15.031Z,38.97
2023-11-07T04:50:45.797Z,39.06
2023-11-07T04:53:13.907Z,39.31
2023-11-07T04:55:42.170Z,39.12
2023-11-07T04:58:10.258Z,38.89
2023-11-07T05:00:39.660Z,39.04
2023-11-07T05:03:07.854Z,39.14
2023-11-07T05:05:36.071Z,39.33
2023-11-07T05:08:04.194Z,39.40
2023-11-07T05:10:32.219Z,39.42
2023-11-07T05:13:00.276Z,39.30
2023-11-07T05:15:28.266Z,38.93
2023-11-07T05:17:57.976Z,39.09
2023-11-07T05:20:26.146Z,39.34
2023-11-07T05:22:55.907Z,39.47
2023-11-07T05:25:23.941Z,38.98
2023-11-07T05:27:52.048Z,39.04
2023-11-07T05:30:20.548Z,39.06
2023-11-07T05:32:49.719Z,39.17
2023-11-07T05:35:19.638Z,39.15
2023-11-07T05:37:47.772Z,39.11
2023-11-07T05:40:18.210Z,39.21
2023-11-07T05:42:46.536Z,38.90
2023-11-07T05:45:14.760Z,39.26
2023-11-07T05:47:42.834Z,39.03
2023-11-07T05:50:12.979Z,39.26
2023-11-07T05:52:42.732Z,38.88
2023-11-07T05:55:11.930Z,39.03
2023-11-07T05:57:40.418Z,39.31
2023-11-07T06:00:12.003Z,39.25
2023-11-07T06:02:40.352Z,39.05
2023-11-07T06:05:09.062Z,39.20
2023-11-07T06:07:37.333Z,38.82
2023-11-07T06:10:07.311Z,39.19
2023-11-07T06:12:35.382Z,38.96
2023-11-07T06:15:03.840Z,39.22
2023-11-07T06:17:32.499Z,38.96
2023-11-07T06:20:01.359Z,38.73
2023-11-07T06:22:29.471Z,38.85
2023-11-07T06:24:57.638Z,38.80
2023-11-07T06:27:28.013Z,38.70
2023-11-07T06:29:56.261Z,38.70
2023-11-07T06:32:24.592Z,38.58
2023-11-07T06:34:53.153Z,38.90
2023-11-07T06:37:21.322Z,38.94
2023-11-07T06:39:50.754Z,39.33
2023-11-07T06:42:18.931Z,39.08
2023-11-07T06:44:48.527Z,39.25
2023-11-07T06:47:19.409Z,38.82
2023-11-07T06:49:47.407Z,38.80
2023-11-07T06:52:15.452Z,39.06
2023-11-07T06:54:43.570Z,39.14
2023-11-07T06:57:12.012Z,38.89
2023-11-07T06:59:40.082Z,39.04
2023-11-07T07:02:09.580Z,38.84
2023-11-07T07:04:37.661Z,38.94
2023-11-07T07:07:05.908Z,39.00
2023-11-07T07:09:33.952Z,39.22
2023-11-07T07:12:01.994Z,39.11
2023-11-07T07:14:30.099Z,39.21
2023-11-07T07:16:58.122Z,39.39
2023-11-07T07:19:27.634Z,39.33
2023-11-07T07:21:57.076Z,39.05
2023-11-07T07:24:28.981Z,39.12
2023-11-07T07:26:59.736Z,39.57
2023-11-07T07:29:28.379Z,39.21
2023-11-07T07:31:57.822Z,39.47
2023-11-07T07:34:27.671Z,39.57
2023-11-07T07:36:55.824Z,39.46
2023-11-07T07:39:35.995Z,39.10
2023-11-07T07:42:10.735Z,39.26
2023-11-07T07:44:39.000Z,39.24
2023-11-07T07:47:09.142Z,39.47
2023-11-07T07:49:41.497Z,39.11
2023-11-07T07:52:11.331Z,39.50
2023-11-07T07:57:11.033Z,39.52
2023-11-07T07:59:42.836Z,39.74
2023-11-07T08:02:11.609Z,39.56
2023-11-07T08:04:41.206Z,40.81
2023-11-07T08:07:09.442Z,41.22
2023-11-07T08:09:42.406Z,41.16
2023-11-07T08:12:11.450Z,40.99
2023-11-07T08:14:39.784Z,40.45
2023-11-07T08:17:08.011Z,40.92
2023-11-07T08:19:36.680Z,40.94
2023-11-07T08:22:08.672Z,41.27
2023-11-07T08:24:37.432Z,40.90
2023-11-07T08:27:05.865Z,41.04
2023-11-07T08:29:35.872Z,40.76
2023-11-07T08:32:08.632Z,41.13
2023-11-07T08:34:37.786Z,40.86
2023-11-07T08:37:11.462Z,41.66
2023-11-07T08:39:42.334Z,41.52
2023-11-07T08:42:12.005Z,41.26
2023-11-07T08:44:40.550Z,41.39
2023-11-07T08:47:08.853Z,41.08
2023-11-07T08:49:38.975Z,41.25
2023-11-07T08:52:08.836Z,41.00
2023-11-07T08:54:38.164Z,40.97
2023-11-07T08:57:06.749Z,40.86
2023-11-07T08:59:37.678Z,40.90
2023-11-07T09:02:06.349Z,40.98
2023-11-07T09:04:34.580Z,40.73
2023-11-07T09:07:04.583Z,40.90
2023-11-07T09:09:35.386Z,40.67
2023-11-07T09:12:03.517Z,40.94
2023-11-07T09:14:31.681Z,40.91
2023-11-07T09:16:59.956Z,40.63
2023-11-07T09:19:28.139Z,40.64
2023-11-07T09:21:56.289Z,40.45
2023-11-07T09:24:25.178Z,40.33
2023-11-07T09:26:55.684Z,40.41
2023-11-07T09:29:24.873Z,40.49
2023-11-07T09:31:53.677Z,40.50
2023-11-07T09:34:22.510Z,40.62
2023-11-07T09:36:50.932Z,40.29
2023-11-07T09:39:19.867Z,40.34
2023-11-07T09:41:48.332Z,40.33
2023-11-07T09:44:17.944Z,40.45
2023-11-07T09:46:46.092Z,40.13
2023-11-07T09:49:14.270Z,40.36
2023-11-07T09:51:42.379Z,40.10
2023-11-07T09:54:10.413Z,40.21
2023-11-07T09:56:40.438Z,39.97
2023-11-07T09:59:15.680Z,40.13
2023-11-07T10:01:46.007Z,40.23
2023-11-07T10:04:16.371Z,40.27
2023-11-07T10:06:44.529Z,40.02
2023-11-07T10:09:15.933Z,40.16
2023-11-07T10:11:47.490Z,40.52
2023-11-07T10:14:15.745Z,40.30
2023-11-07T10:16:46.092Z,40.12
2023-11-07T10:19:15.848Z,40.12
2023-11-07T10:21:44.284Z,40.31
2023-11-07T10:24:13.571Z,40.17
2023-11-07T10:26:51.731Z,40.35
2023-11-07T10:29:26.950Z,40.32
2023-11-07T10:32:04.693Z,40.18
2023-11-07T10:34:33.025Z,40.39
2023-11-07T10:37:01.245Z,40.43
2023-11-07T10:39:31.433Z,39.98
2023-11-07T10:41:59.870Z,40.43
2023-11-07T10:44:30.443Z,40.30
2023-11-07T10:46:59.673Z,40.01
2023-11-07T10:49:32.217Z,40.57
2023-11-07T10:52:00.498Z,40.04
2023-11-07T10:54:32.084Z,40.44
2023-11-07T10:57:04.526Z,40.14
2023-11-07T10:59:34.210Z,40.35
2023-11-07T11:02:04.591Z,40.02
2023-11-07T11:04:36.017Z,40.21
2023-11-07T11:07:05.834Z,40.11
2023-11-07T11:09:34.594Z,40.02
2023-11-07T11:12:05.313Z,40.30
2023-11-07T11:14:33.452Z,40.11
2023-11-07T11:17:08.867Z,40.11
2023-11-07T11:19:40.602Z,40.02
2023-11-07T11:22:12.908Z,40.09
2023-11-07T11:24:54.888Z,40.37
2023-11-07T11:27:25.825Z,40.17
2023-11-07T11:29:53.848Z,40.41
2023-11-07T11:32:25.659Z,40.16
2023-11-07T11:34:59.128Z,40.56
2023-11-07T11:37:28.370Z,40.40
2023-11-07T11:39:56.472Z,40.47
2023-11-07T11:42:25.551Z,40.26
2023-11-07T11:45:40.004Z,40.37
2023-11-07T11:48:12.873Z,40.67
2023-11-07T11:50:42.459Z,40.41
2023-11-07T11:53:10.730Z,40.53
2023-11-07T11:56:13.076Z,40.44
2023-11-07T11:58:42.159Z,40.42
2023-11-07T12:01:11.336Z,40.54
2023-11-07T12:03:47.211Z,40.34
2023-11-07T12:06:18.020Z,40.40
2023-11-07T12:08:46.500Z,40.35
2023-11-07T12:11:14.787Z,40.40
2023-11-07T12:13:43.726Z,40.57
2023-11-07T12:16:17.507Z,40.40
2023-11-07T12:18:48.256Z,40.38
2023-11-07T12:21:26.084Z,40.58
2023-11-07T12:23:54.841Z,40.38
2023-11-07T12:26:22.924Z,40.71
2023-11-07T12:28:53.046Z,40.51
2023-11-07T12:31:25.698Z,40.37
2023-11-07T12:33:54.330Z,40.45
2023-11-07T12:36:22.552Z,40.48
2023-11-07T12:38:52.159Z,40.67
2023-11-07T12:41:20.399Z,40.37
2023-11-07T12:43:49.634Z,40.70
2023-11-07T12:46:18.518Z,40.57
2023-11-07T12:48:47.621Z,40.34
2023-11-07T12:51:22.773Z,40.18
2023-11-07T12:53:52.843Z,40.46
2023-11-07T12:56:21.189Z,40.36
2023-11-07T12:58:49.660Z,40.10
2023-11-07T13:01:17.902Z,40.13
2023-11-07T13:03:46.061Z,40.29
2023-11-07T13:06:14.837Z,40.13
2023-11-07T13:08:45.682Z,40.24
2023-11-07T13:11:15.492Z,40.31
2023-11-07T13:13:44.106Z,40.18
2023-11-07T13:16:12.179Z,40.13
2023-11-07T13:18:40.655Z,40.21
2023-11-07T13:21:09.870Z,39.95
2023-11-07T13:23:39.377Z,40.29
2023-11-07T13:26:08.951Z,40.11
2023-11-07T13:28:39.393Z,40.11
2023-11-07T13:31:07.561Z,39.91
2023-11-07T13:33:36.646Z,39.71
2023-11-07T13:36:05.610Z,39.79
2023-11-07T13:38:33.842Z,39.91
2023-11-07T13:41:02.683Z,40.06
2023-11-07T13:43:31.517Z,40.13
2023-11-07T13:46:01.137Z,40.03
2023-11-07T13:48:32.523Z,39.87
2023-11-07T13:51:00.956Z,39.87
2023-11-07T13:53:28.973Z,40.03
2023-11-07T13:55:57.079Z,39.92
2023-11-07T13:58:25.093Z,39.86
2023-11-07T14:00:53.170Z,40.01
2023-11-07T14:03:23.675Z,40.17
2023-11-07T14:05:51.850Z,40.19
2023-11-07T14:08:20.083Z,40.18
2023-11-07T14:10:48.323Z,39.89
2023-11-07T14:13:16.320Z,39.94
2023-11-07T14:15:44.638Z,40.25
2023-11-07T14:18:20.018Z,40.09
2023-11-07T14:20:57.884Z,40.06
2023-11-07T14:23:26.261Z,40.08
2023-11-07T14:25:54.398Z,39.85
2023-11-07T14:28:22.560Z,39.96
2023-11-07T14:30:50.801Z,39.83
2023-11-07T14:33:20.203Z,40.25
2023-11-07T14:35:48.756Z,40.25
2023-11-07T14:38:22.742Z,40.23
2023-11-07T14:40:51.866Z,39.97
2023-11-07T14:43:20.081Z,39.88
2023-11-07T14:45:48.072Z,40.14
2023-11-07T14:48:17.432Z,40.11
2023-11-07T14:50:46.156Z,39.91
2023-11-07T14:53:16.308Z,40.05
2023-11-07T14:55:45.919Z,40.12
2023-11-07T14:58:17.175Z,39.88
2023-11-07T15:00:45.322Z,40.04
2023-11-07T15:03:13.966Z,40.30
2023-11-07T15:05:43.674Z,39.97
2023-11-07T15:08:12.093Z,39.86
2023-11-07T15:10:40.218Z,40.33
2023-11-07T15:13:10.002Z,39.99
2023-11-07T15:15:38.121Z,40.29
2023-11-07T15:18:06.731Z,39.94
2023-11-07T15:20:34.997Z,40.15
2023-11-07T15:23:03.487Z,39.99
2023-11-07T15:25:34.876Z,39.92
2023-11-07T15:28:04.640Z,39.85
2023-11-07T15:30:36.152Z,40.23
2023-11-07T15:33:05.087Z,40.12
2023-11-07T15:35:37.761Z,40.11
2023-11-07T15:38:08.178Z,40.12
2023-11-07T15:40:37.602Z,39.87
2023-11-07T15:43:06.944Z,40.07
2023-11-07T15:45:36.764Z,39.84
2023-11-07T15:48:11.161Z,39.96
2023-11-07T15:50:40.396Z,40.17
2023-11-07T15:53:10.040Z,39.92
2023-11-07T15:55:38.965Z,39.77
2023-11-07T15:58:07.571Z,39.89
2023-11-07T16:00:37.208Z,40.21
2023-11-07T16:03:06.319Z,39.85
2023-11-07T16:05:36.898Z,39.96
2023-11-07T16:08:07.656Z,40.10
2023-11-07T16:10:37.049Z,39.74
2023-11-07T16:13:05.733Z,39.85
2023-11-07T16:15:34.851Z,39.90
2023-11-07T16:18:06.273Z,40.17
2023-11-07T16:20:34.432Z,39.96
2023-11-07T16:23:04.625Z,39.73
2023-11-07T16:25:33.108Z,39.93
2023-11-07T16:28:03.189Z,39.87
2023-11-07T16:30:33.168Z,40.12
2023-11-07T16:33:01.670Z,40.15
2023-11-07T16:35:31.228Z,40.31
2023-11-07T16:37:59.346Z,39.88
2023-11-07T16:40:27.483Z,39.88
2023-11-07T16:42:55.732Z,40.07
2023-11-07T16:45:24.438Z,40.04
2023-11-07T16:47:52.810Z,39.97
2023-11-07T16:50:21.879Z,40.08
2023-11-07T16:52:52.642Z,39.89
2023-11-07T16:55:20.859Z,39.86
2023-11-07T16:57:49.230Z,39.70
2023-11-07T17:00:20.164Z,40.13
2023-11-07T17:02:49.019Z,40.04
2023-11-07T17:05:17.988Z,40.20
2023-11-07T17:07:46.863Z,39.92
2023-11-07T17:10:16.760Z,39.85
2023-11-07T17:12:44.971Z,40.04
2023-11-07T17:15:14.056Z,40.07
2023-11-07T17:17:45.690Z,40.04
2023-11-07T17:20:14.578Z,39.97
2023-11-07T17:22:42.791Z,39.83
2023-11-07T17:25:11.329Z,39.81
2023-11-07T17:27:41.085Z,39.79
2023-11-07T17:30:10.017Z,40.24
2023-11-07T17:32:39.133Z,40.22
2023-11-07T17:35:08.379Z,40.40
2023-11-07T17:37:38.745Z,40.24
2023-11-07T17:40:09.713Z,39.86
2023-11-07T17:42:38.066Z,40.30
2023-11-07T17:45:08.914Z,40.03
2023-11-07T17:47:37.136Z,40.26
2023-11-07T17:50:05.571Z,40.00
2023-11-07T17:52:33.579Z,40.10
2023-11-07T17:55:01.918Z,40.05
2023-11-07T17:57:30.863Z,40.31
2023-11-07T17:59:59.276Z,39.97
2023-11-07T18:02:29.506Z,40.47
2023-11-07T18:04:58.191Z,40.56
2023-11-07T18:07:26.205Z,40.52
2023-11-07T18:09:55.020Z,40.17
2023-11-07T18:12:23.070Z,40.49
2023-11-07T18:14:52.297Z,40.50
2023-11-07T18:17:23.191Z,40.20
2023-11-07T18:19:56.378Z,40.50
2023-11-07T18:22:25.718Z,40.47
2023-11-07T18:24:55.219Z,40.69
2023-11-07T18:27:24.726Z,40.98
2023-11-07T18:29:53.847Z,40.79
2023-11-07T18:32:23.296Z,40.88
2023-11-07T18:34:52.865Z,41.27
2023-11-07T18:37:22.343Z,40.99
2023-11-07T18:39:50.387Z,41.11
2023-11-07T18:42:18.825Z,41.34
2023-11-07T18:44:47.287Z,41.34
2023-11-07T18:47:15.427Z,41.52
2023-11-07T18:49:43.464Z,41.40
2023-11-07T18:52:13.024Z,41.08
2023-11-07T18:54:42.448Z,41.35
2023-11-07T18:57:13.970Z,41.34
2023-11-07T18:59:42.134Z,41.73
2023-11-07T19:02:11.035Z,41.58
2023-11-07T19:04:39.399Z,41.64
2023-11-07T19:07:08.260Z,41.83
2023-11-07T19:09:37.883Z,41.63
2023-11-07T19:12:07.855Z,41.41
2023-11-07T19:14:36.081Z,41.35
2023-11-07T19:17:06.564Z,41.72
2023-11-07T19:19:36.072Z,41.56
2023-11-07T19:22:05.943Z,41.43
2023-11-07T19:24:38.268Z,41.75
2023-11-07T19:27:09.878Z,41.85
2023-11-07T19:29:38.466Z,41.81
2023-11-07T19:32:07.818Z,42.14
2023-11-07T19:34:35.949Z,42.23
2023-11-07T19:37:04.520Z,41.70
2023-11-07T19:39:35.581Z,42.13
2023-11-07T19:42:05.680Z,42.15
2023-11-07T19:44:35.313Z,42.23
2023-11-07T19:47:04.292Z,42.09
2023-11-07T19:49:32.679Z,42.40
2023-11-07T19:52:00.882Z,42.67
2023-11-07T19:54:29.090Z,42.69
2023-11-07T19:56:59.943Z,42.30
2023-11-07T19:59:29.414Z,42.67
2023-11-07T20:01:57.516Z,42.58
2023-11-07T20:04:25.680Z,42.28
2023-11-07T20:06:53.873Z,42.74
2023-11-07T20:09:23.060Z,42.74
2023-11-07T20:11:51.137Z,42.59
2023-11-07T20:14:19.682Z,42.51
2023-11-07T20:16:49.527Z,42.71
2023-11-07T20:19:17.815Z,42.56
2023-11-07T20:21:46.068Z,42.56
2023-11-07T20:24:14.411Z,42.51
2023-11-07T20:26:42.497Z,42.76
2023-11-07T20:29:10.746Z,43.11
2023-11-07T20:31:38.747Z,42.78
2023-11-07T20:34:09.070Z,42.70
2023-11-07T20:36:38.664Z,42.90
2023-11-07T20:39:07.829Z,42.87
2023-11-07T20:41:37.604Z,43.16
2023-11-07T20:44:05.741Z,42.84
2023-11-07T20:46:34.830Z,42.97
2023-11-07T20:49:04.914Z,43.35
2023-11-07T20:51:36.538Z,43.44
2023-11-07T20:54:05.851Z,43.06
2023-11-07T20:56:34.707Z,43.43
2023-11-07T20:59:03.024Z,43.30
2023-11-07T21:01:31.071Z,43.52
2023-11-07T21:04:00.762Z,43.36
2023-11-07T21:06:29.577Z,43.41
2023-11-07T21:08:59.057Z,43.47
2023-11-07T21:11:27.191Z,43.28
2023-11-07T21:13:55.304Z,43.16
2023-11-07T21:16:23.674Z,43.18
2023-11-07T21:18:51.951Z,43.16
2023-11-07T21:21:20.151Z,43.51
2023-11-07T21:23:48.198Z,43.35
2023-11-07T21:26:18.219Z,43.71
2023-11-07T21:28:47.030Z,43.68
2023-11-07T21:31:15.122Z,43.67
2023-11-07T21:33:43.357Z,43.77
2023-11-07T21:36:12.180Z,43.66
2023-11-07T21:38:40.357Z,44.08
2023-11-07T21:41:08.865Z,44.20
2023-11-07T21:43:38.378Z,44.19
2023-11-07T21:46:08.577Z,44.03
2023-11-07T21:48:36.686Z,43.86
2023-11-07T21:51:05.167Z,44.07
2023-11-07T21:53:34.662Z,44.52
2023-11-07T21:56:03.856Z,44.11
2023-11-07T21:58:33.394Z,44.38
2023-11-07T22:01:06.705Z,44.13
2023-11-07T22:03:37.765Z,44.33
2023-11-07T22:06:07.361Z,44.51
2023-11-07T22:08:36.939Z,44.54
2023-11-07T22:11:07.475Z,44.38
2023-11-07T22:13:37.226Z,44.24
2023-11-07T22:16:06.766Z,44.46
2023-11-07T22:18:34.964Z,44.29
2023-11-07T22:21:03.502Z,44.63
2023-11-07T22:23:31.630Z,44.68
2023-11-07T22:25:59.717Z,44.53
2023-11-07T22:28:27.727Z,44.46
2023-11-07T22:30:56.843Z,44.53
2023-11-07T22:33:26.496Z,44.60
2023-11-07T22:35:54.729Z,44.52
2023-11-07T22:38:23.973Z,44.67
2023-11-07T22:40:52.052Z,44.42
2023-11-07T22:43:20.163Z,44.65
2023-11-07T22:45:48.588Z,44.58
2023-11-07T22:48:16.989Z,44.47
2023-11-07T22:50:46.564Z,44.28
2023-11-07T22:53:15.640Z,44.22
2023-11-07T22:55:48.873Z,44.59
2023-11-07T22:58:18.232Z,44.37
2023-11-07T23:00:49.985Z,44.38
2023-11-07T23:03:18.252Z,44.54
2023-11-07T23:05:49.605Z,44.91
2023-11-07T23:08:18.049Z,44.99
2023-11-07T23:10:46.060Z,44.86
2023-11-07T23:13:17.233Z,44.43
2023-11-07T23:15:57.142Z,44.78
2023-11-07T23:18:25.248Z,44.51
2023-11-07T23:20:54.680Z,44.70
2023-11-07T23:23:22.673Z,44.62
2023-11-07T23:25:51.130Z,44.81
2023-11-07T23:28:19.228Z,44.52
2023-11-07T23:30:47.405Z,44.74
2023-11-07T23:33:15.909Z,44.82
2023-11-07T23:35:46.422Z,44.64
2023-11-07T23:38:17.193Z,44.67
2023-11-07T23:40:45.178Z,44.76
2023-11-07T23:43:14.464Z,44.85
2023-11-07T23:45:42.651Z,45.20
2023-11-07T23:48:10.884Z,45.06
2023-11-07T23:50:39.068Z,44.80
2023-11-07T23:53:07.171Z,44.81
2023-11-07T23:55:37.863Z,44.62
2023-11-07T23:58:05.999Z,44.67
